createdAt,value
2018-05-02T00:01:26.593Z,20
2018-05-02T00:11:27.408Z,19
2018-05-02T00:21:27.449Z,19
2018-05-02T00:31:27.220Z,19
2018-05-02T00:41:28.511Z,20
2018-05-02T00:51:27.083Z,19
2018-05-02T01:01:26.759Z,19
2018-05-02T01:11:27.726Z,20
2018-05-02T01:21:28.428Z,19
2018-05-02T01:31:27.335Z,19
2018-05-02T01:41:29.640Z,19
2018-05-02T01:51:27.373Z,19
2018-05-02T02:01:27.502Z,19
2018-05-02T02:11:30.987Z,19
2018-05-02T02:21:33.376Z,19
2018-05-02T02:31:27.279Z,19
2018-05-02T02:41:28.689Z,19
2018-05-02T02:51:28.728Z,19
2018-05-02T03:01:27.096Z,19
2018-05-02T03:11:28.161Z,19
2018-05-02T03:21:27.540Z,19
2018-05-02T03:31:27.760Z,19
2018-05-02T03:41:27.808Z,19
2018-05-02T03:51:27.945Z,19
2018-05-02T04:01:28.037Z,19
2018-05-02T04:11:28.268Z,19
2018-05-02T04:21:26.417Z,19
2018-05-02T04:31:27.900Z,18
2018-05-02T04:41:27.976Z,19
2018-05-02T04:51:28.442Z,19
2018-05-02T05:01:27.459Z,19
2018-05-02T05:11:27.382Z,19
2018-05-02T05:21:27.572Z,19
2018-05-02T05:31:28.068Z,19
2018-05-02T05:41:27.295Z,19
2018-05-02T05:51:27.550Z,19
2018-05-02T06:01:28.189Z,19
2018-05-02T06:11:27.172Z,19
2018-05-02T06:21:28.131Z,19
2018-05-02T06:31:28.998Z,19
2018-05-02T06:41:28.262Z,19
2018-05-02T06:51:26.464Z,19
2018-05-02T07:01:27.490Z,19
2018-05-02T07:11:28.433Z,20
2018-05-02T07:21:28.210Z,19
2018-05-02T07:31:26.859Z,19
2018-05-02T07:41:27.534Z,20
2018-05-02T07:51:27.313Z,20
2018-05-02T08:01:27.560Z,20
2018-05-02T08:11:26.567Z,20
2018-05-02T08:21:31.933Z,20
2018-05-02T08:31:28.720Z,20
2018-05-02T08:41:29.275Z,20
2018-05-02T08:51:26.575Z,20
2018-05-02T09:01:27.169Z,20
2018-05-02T09:11:28.211Z,20
2018-05-02T09:21:27.897Z,20
2018-05-02T09:31:28.231Z,21
2018-05-02T09:41:27.894Z,20
2018-05-02T09:51:27.936Z,21
2018-05-02T10:01:27.882Z,21
2018-05-02T10:11:27.242Z,21
2018-05-02T10:21:27.260Z,21
2018-05-02T10:31:26.998Z,21
2018-05-02T10:41:27.977Z,21
2018-05-02T10:51:26.885Z,22
2018-05-02T11:01:29.106Z,22
2018-05-02T11:11:29.959Z,22
2018-05-02T11:21:26.873Z,23
2018-05-02T11:31:26.889Z,23
2018-05-02T11:41:27.481Z,23
2018-05-02T11:51:26.889Z,24
2018-05-02T12:01:26.906Z,24
2018-05-02T12:11:27.006Z,24
2018-05-02T12:21:26.028Z,25
2018-05-02T12:31:26.907Z,25
2018-05-02T12:41:26.752Z,24
2018-05-02T12:51:26.877Z,24
2018-05-02T13:01:26.635Z,25
2018-05-02T13:11:26.362Z,25
2018-05-02T13:21:26.302Z,25
2018-05-02T13:31:26.350Z,26
2018-05-02T13:41:26.242Z,25
2018-05-02T13:51:28.973Z,26
2018-05-02T14:01:28.015Z,26
2018-05-02T14:11:26.751Z,26
2018-05-02T14:21:29.107Z,26
2018-05-02T14:31:26.929Z,26
2018-05-02T14:41:27.516Z,26
2018-05-02T14:51:27.996Z,26
2018-05-02T15:01:26.979Z,26
2018-05-02T15:11:27.076Z,26
2018-05-02T15:21:27.301Z,26
2018-05-02T15:31:27.107Z,26
2018-05-02T15:41:28.131Z,26
2018-05-02T15:51:26.940Z,26
2018-05-02T16:01:27.125Z,27
2018-05-02T16:11:27.697Z,26
2018-05-02T16:21:26.727Z,27
2018-05-02T16:31:26.595Z,26
2018-05-02T16:41:26.455Z,26
2018-05-02T16:51:26.518Z,26
2018-05-02T17:01:26.981Z,26
2018-05-02T17:11:26.923Z,26
2018-05-02T17:21:27.028Z,26
2018-05-02T17:31:27.534Z,25
2018-05-02T17:41:27.957Z,25
2018-05-02T17:51:26.702Z,26
2018-05-02T18:01:27.021Z,25
2018-05-02T18:11:26.687Z,25
2018-05-02T18:21:27.207Z,24
2018-05-02T18:31:27.438Z,24
2018-05-02T18:41:27.042Z,24
2018-05-02T18:51:27.861Z,24
2018-05-02T19:01:27.215Z,24
2018-05-02T19:11:26.966Z,24
2018-05-02T19:21:30.082Z,24
2018-05-02T19:31:28.569Z,23
2018-05-02T19:41:26.339Z,23
2018-05-02T19:51:26.408Z,23
2018-05-02T20:01:27.150Z,23
2018-05-02T20:11:27.137Z,23
2018-05-02T20:21:26.626Z,23
2018-05-02T20:31:26.364Z,23
2018-05-02T20:41:26.250Z,23
2018-05-02T20:51:28.899Z,23
2018-05-02T21:01:26.935Z,22
2018-05-02T21:11:27.801Z,23
2018-05-02T21:21:26.795Z,22
2018-05-02T21:31:26.539Z,22
2018-05-02T21:41:27.111Z,22
2018-05-02T21:51:27.223Z,22
2018-05-02T22:01:28.331Z,22
2018-05-02T22:11:27.018Z,22
2018-05-02T22:21:27.752Z,22
2018-05-02T22:31:27.665Z,22
2018-05-02T22:41:28.071Z,22
2018-05-02T22:51:30.100Z,21
2018-05-02T23:01:28.394Z,21
2018-05-02T23:11:26.099Z,21
2018-05-02T23:21:27.237Z,21
2018-05-02T23:31:28.533Z,21
2018-05-02T23:41:29.523Z,21
2018-05-02T23:51:26.236Z,21
